Search - Events Booking
Search - Categories
Search - Content
Search - News Feeds
CORA

RACE 3 - A Fleet - 5/30/18 at 18:00:00

Start: A Fleet, Finishes: Finish time, Time: 18:15, Distance: 7.41, Course: 15
Rank Fleet Boat Class SailNo HelmName Rating Start Finish Elapsed Corrected
1 A FEARLESS Melges 32 184 Lucas/Durlach 24 18:15 19:24:08 1:09:08 1:18:17
2 A GUILLOTINE Melges 32 174 Mossman 24 18:15 19:24:15 1:09:15 1:18:25
3 A KINETIC J 111 73 Stein 39 18:15 19:27:13 1:12:13 1:19:42
4 A FOGDOG ID 35 35029 Guhl 36 18:15 19:28:14 1:13:14 1:21:14
5 A WARHORSE ID 35 35006 Brown 36 18:15 19:28:25 1:13:25 1:21:26
6 A MOOSE DOWN J 120 CF 521201 Moore 48 18:15 19:30:43 1:15:43 1:22:18
7 A PHOTON ID 35 35022 Hibdon 36 18:15 19:30:05 1:15:05 1:23:17
8 A DAUNTLESS Beneteau 47.7 28477B Terwilliger 27     DNC  

RACE 3 - B Fleet - 5/30/18 at 18:00:00

Start: B Fleet, Finishes: Finish time, Time: 18:27, Distance: 5.5, Course: 9
Rank Fleet Boat Class SailNo HelmName Rating Start Finish Elapsed Corrected
1 B CHICORA J 24 2349 Hill 171 18:27 19:32:05 1:05:05 0:58:40
2 B ORANGE CRUSH J 24 828 Benjamin 171 18:27 19:32:14 1:05:14 0:58:49
3 B JO MAMMA J 24 3266 Palazzo 171 18:27 19:33:58 1:06:58 1:00:22
4 B LEVEL PELICAN J 24 2260 McDonald 171 18:27 19:34:05 1:07:05 1:00:29
5 B MATADORA J 24 5259 Rogge 171 18:27 19:34:38 1:07:38 1:00:58
6 B DIRTY DOG J 24 5357 Moffly 171 18:27 19:35:37 1:08:37 1:01:52
7 B PUFF DADDY J 24 4398 Lent 171 18:27 19:37:13 1:10:13 1:03:18
8 B HAVOC Kirby 25 100 O'Connor 180 18:27 19:47:58 1:20:58 1:12:06
9 B WHISKEY & KNIVES Sparkman & Stephens 30 30001 Hemmerling 153     DNC  

RACE 3 - C Fleet - 5/30/18 at 18:00:00

Start: C Fleet, Finishes: Finish time, Time: 18:33, Distance: 4.58, Course: 4
Rank Fleet Boat Class SailNo HelmName Rating Start Finish Elapsed Corrected
1 C INDIGO Pearson Vanguard 184 Dodds 228 18:33 19:31:29 0:58:29 0:48:52
2 C CELADON Moorings 510 51704 Lesniak 96 18:33 19:22:34 0:49:34 0:49:52
3 C LAS BRISAS J 30 32956 Swatta 160 18:33 19:30:24 0:57:24 0:52:33

RACE 3 - D Fleet - 5/30/18 at 18:00:00

Start: D Fleet, Finishes: Finish time, Time: 18:33, Distance: 4.58, Course: 4
Rank Fleet Boat Class SailNo HelmName Rating Start Finish Elapsed Corrected
1 D MOON RIVER Kenner Privateer 26 116 Moore 276 18:33 19:35:39 1:02:39 0:49:18
2 D DIRECTION Morgan 30-2 7 Springer 201 18:33 19:32:35 0:59:35 0:51:34
3 D KAMIKAZE 5 Morgan 30/2 569 Simons 201 18:33 19:36:23 1:03:23 0:54:52
4 D ANON Hunter 31 H310 Carns 206 18:33 20:10:47 1:37:47 1:24:04
5 D ELLA W BRAY Marshall 22 22 Kenan 285 18:33 20:25:45 1:52:45 1:27:46
6 D TROUBLE Hunter 240 H240 VanWagenen 277 18:33 20:14:39 DNS  
6 D MENTAL HEELING Catalina 30 5399 Keeney 221 18:33 19:48:40 DNS  

RACE 3 - N Fleet - 5/30/18 at 18:00:00

Start: N Fleet, Finishes: Finish time, Time: 18:33, Distance: 4.58, Course: 4
Rank Fleet Boat Class SailNo HelmName Rating Start Finish Elapsed Corrected
1 N SCEPTRE J 130 CF SD 28693 Musor 45 18:33 19:14:50 0:41:50 0:45:42
2 N EMOCEAN J 120 Al 37120 Hanckel 62 18:33 19:17:56 0:44:56 0:47:43
3 N FATE Beneteau 49 15 Ryan 127 18:33 19:28:55 0:55:55 0:53:41
4 N KELLY KREW Catalina 385 WK 212 Kelly 166 18:33 19:52:55 1:19:55 1:12:33
5 N ALLIANCE Ericson 38 265 Stetler 150     DNC  
5 N SEAMOUR Catalina 380 192 Seymour 151     DNC  

RACE 3 - S Fleet - 5/30/18 at 18:00:00

Start: S Fleet, Finishes: Finish time, Time: 18:21, Distance: 7.41, Course: 15
Rank Fleet Boat Class SailNo HelmName Rating Start Finish Elapsed Corrected
1 S SKIMMER J 105 313 Martschink/Hagood 90 18:21 19:41:40 1:20:40 1:21:56
2 S ARROW J 35 32864 Schwenzfeier 72 18:21 19:40:30 1:19:30 1:23:05
3 S RUCKUS J105 239 Seif 90 18:21 19:43:18 1:22:18 1:23:35
4 S TEMPTRESS SR 33 OB 50484 King 69 18:21 19:40:39 1:19:39 1:23:38
5 S RUMFRONT J 105 51306 Martschink/McKenzie 90 18:21 19:44:09 1:23:09 1:24:27
6 S CHEERS Santana 30/30 83472 Mackin 120 18:21 19:48:43 1:27:43 1:25:06
7 S RELOAD X-Treme 26 60848 Popov 90 18:21 19:50:50 1:29:50 1:31:14
8 S EASTERLY e 33 16 Cramer/Barnes 102 18:21 19:53:22 1:32:22 1:32:05
9 S JOY RIDE J 105 97 Scribner 90     DNC  
9 S DIFFERENT DRUMMER Azzura 310 1000 Gaag 66     DNC  

RACE 3 - V Fleet - 5/30/18 at 18:00:00

Start: V Fleet, Finishes: Finish time, Time: 18:27, Distance: 5.5, Course: 9
Rank Fleet Boat Class SailNo HelmName Rating Start Finish Elapsed Corrected
1 V SENDIT VX1 USA160 Wiggens   18:27 19:22:49 0:55:49 1:05:58


http://www.charlestonoceanracing.com/

Sailwave Scoring Software 2.19.8
www.sailwave.com